Time;durP1;ratioP1;P1;durP2;ratioP2;P2;SDS_P1;SDS_P2;PMS_P1;PMS_P2;Temp;Humidity;BMP_temperature;BMP_pressure;BME280_temperature;BME280_humidity;BME280_pressure;Samples;Min_cycle;Max_cycle;Signal;HPM_P1;HPM_P2
2023/05/17 00:03:10;;;;;;;3.60;1.73;;;;;;;18.88;52.82;102005.97;20912357;28;20055;-64
2023/05/17 00:13:12;;;;;;;2.65;1.50;;;;;;;18.87;52.87;102015.06;20895265;28;20787;-63
2023/05/17 00:23:14;;;;;;;2.22;1.38;;;;;;;18.85;52.87;102011.59;20911216;28;20044;-64
2023/05/17 00:33:15;;;;;;;3.08;1.27;;;;;;;18.83;52.65;102027.06;20909857;28;20140;-63
2023/05/17 00:43:17;;;;;;;2.67;1.20;;;;;;;18.81;52.78;102032.56;20909747;28;20047;-63
2023/05/17 00:53:20;;;;;;;3.40;1.50;;;;;;;18.79;52.60;102023.75;20907846;28;20057;-63
2023/05/17 01:03:22;;;;;;;3.55;1.40;;;;;;;18.79;52.57;102014.78;20889829;28;20049;-64
2023/05/17 01:13:53;;;;;;;2.40;1.27;;;;;;;18.77;52.44;102014.03;20895717;28;20444;-63
2023/05/17 01:24:23;;;;;;;2.35;1.30;;;;;;;18.76;52.42;102020.41;20904247;28;20410;-63
2023/05/17 01:34:25;;;;;;;1.92;1.20;;;;;;;18.74;52.19;102014.25;20904008;28;20382;-63
2023/05/17 01:44:42;;;;;;;3.70;1.50;;;;;;;18.72;52.10;102021.59;20904982;28;20515;-63
2023/05/17 01:54:53;;;;;;;2.78;1.33;;;;;;;18.70;52.07;102025.28;20886572;28;20045;-64
2023/05/17 02:04:55;;;;;;;2.85;1.27;;;;;;;18.69;52.13;102039.75;20885556;28;20113;-63
2023/05/17 02:14:56;;;;;;;4.97;1.73;;;;;;;18.68;51.88;102051.50;20887744;28;20136;-63
2023/05/17 02:24:58;;;;;;;3.30;1.30;;;;;;;18.67;52.14;102054.31;20900620;28;20061;-63
2023/05/17 02:35:01;;;;;;;4.75;1.65;;;;;;;18.66;51.96;102066.06;20901390;28;20096;-63
2023/05/17 02:45:03;;;;;;;3.33;1.30;;;;;;;18.63;51.84;102066.28;20898507;28;20044;-63
2023/05/17 02:55:05;;;;;;;2.85;1.20;;;;;;;18.65;51.92;102069.75;20901223;28;20068;-63
2023/05/17 03:05:07;;;;;;;3.13;1.45;;;;;;;18.65;51.75;102077.84;20894506;28;20124;-63
2023/05/17 03:15:11;;;;;;;5.60;1.87;;;;;;;18.64;51.68;102081.50;20876882;28;20076;-63
2023/05/17 03:25:13;;;;;;;2.53;1.63;;;;;;;18.64;51.74;102089.59;20881324;28;20060;-64
2023/05/17 03:35:15;;;;;;;2.25;1.10;;;;;;;18.62;51.70;102103.22;20897114;28;20045;-64
2023/05/17 03:45:21;;;;;;;3.15;1.65;;;;;;;18.62;51.81;102118.50;20897222;28;20045;-64
2023/05/17 03:55:22;;;;;;;3.28;1.27;;;;;;;18.60;51.67;102136.66;20905025;28;20155;-64
2023/05/17 04:05:25;;;;;;;2.95;1.20;;;;;;;18.57;51.50;102135.06;20898651;28;20045;-63
2023/05/17 04:15:28;;;;;;;3.05;1.42;;;;;;;18.59;51.51;102145.72;20910660;28;20091;-64
2023/05/17 04:25:30;;;;;;;2.90;1.10;;;;;;;18.57;51.47;102162.03;20909584;28;20053;-64
2023/05/17 04:35:32;;;;;;;3.60;1.30;;;;;;;18.57;51.58;102183.59;20909032;28;20076;-64
2023/05/17 04:45:34;;;;;;;3.35;1.13;;;;;;;18.55;51.61;102204.38;20908379;28;20107;-63
2023/05/17 04:55:36;;;;;;;1.50;0.77;;;;;;;18.55;51.41;102209.78;20907380;28;20489;-63
2023/05/17 05:05:38;;;;;;;2.92;1.10;;;;;;;18.54;51.31;102216.16;20889054;28;20425;-64
2023/05/17 05:15:40;;;;;;;3.20;1.45;;;;;;;18.54;51.47;102232.31;20905997;28;20045;-63
2023/05/17 05:25:42;;;;;;;2.20;1.10;;;;;;;18.48;51.30;102238.16;20889271;28;20497;-63
2023/05/17 05:35:45;;;;;;;2.22;0.80;;;;;;;18.54;51.30;102262.00;20904571;28;20053;-64
2023/05/17 05:45:46;;;;;;;2.92;1.10;;;;;;;18.53;51.03;102273.75;20887380;28;20095;-64
2023/05/17 05:55:48;;;;;;;2.05;0.98;;;;;;;18.50;50.41;102282.06;20902912;28;20048;-64
2023/05/17 06:05:50;;;;;;;1.25;0.70;;;;;;;18.55;50.54;102296.09;20890300;28;20049;-63
2023/05/17 06:15:52;;;;;;;2.22;0.93;;;;;;;18.56;50.26;102305.94;20902643;28;20053;-63
2023/05/17 06:25:54;;;;;;;2.30;0.70;;;;;;;18.56;50.02;102316.72;20902562;28;20060;-64
2023/05/17 06:35:56;;;;;;;2.30;0.80;;;;;;;18.58;49.88;102325.56;20901355;28;20052;-64
2023/05/17 06:45:59;;;;;;;3.03;1.33;;;;;;;18.60;49.64;102347.03;20901110;28;20049;-63
2023/05/17 06:56:00;;;;;;;2.80;1.08;;;;;;;18.62;49.45;102356.75;20899503;28;20132;-63
2023/05/17 07:06:02;;;;;;;1.50;0.75;;;;;;;18.65;49.44;102367.31;20884564;28;20072;-64
2023/05/17 07:16:06;;;;;;;2.10;0.80;;;;;;;18.68;49.11;102366.22;20881686;28;20402;-63
2023/05/17 07:26:08;;;;;;;2.13;0.87;;;;;;;18.69;49.24;102368.84;20899714;28;20136;-63
2023/05/17 07:36:09;;;;;;;3.05;0.80;;;;;;;18.70;49.25;102386.75;20915306;28;20052;-63
2023/05/17 07:46:11;;;;;;;3.20;1.10;;;;;;;18.72;49.16;102399.25;20914716;28;20059;-63
2023/05/17 07:56:13;;;;;;;2.05;0.80;;;;;;;18.75;48.92;102415.25;20913702;28;20057;-64
2023/05/17 08:06:15;;;;;;;1.42;0.60;;;;;;;18.76;48.95;102422.38;20902617;28;20421;-63
2023/05/17 08:16:17;;;;;;;2.30;0.95;;;;;;;18.76;48.92;102425.06;20911655;28;20037;-64
2023/05/17 08:26:19;;;;;;;2.58;1.00;;;;;;;18.76;48.75;102435.84;20911055;28;20167;-63
2023/05/17 08:36:20;;;;;;;3.47;1.45;;;;;;;18.76;48.96;102442.09;20910283;28;20045;-63
2023/05/17 08:46:25;;;;;;;1.50;0.70;;;;;;;18.78;48.55;102439.31;20909095;28;20099;-64
2023/05/17 08:56:27;;;;;;;2.30;0.82;;;;;;;18.82;48.57;102448.91;20903806;28;20045;-64
2023/05/17 09:06:31;;;;;;;2.00;0.80;;;;;;;18.90;48.37;102449.25;20900449;28;20782;-63
2023/05/17 09:16:35;;;;;;;2.08;1.05;;;;;;;18.92;48.27;102459.97;20907385;28;20075;-63
2023/05/17 09:26:37;;;;;;;2.63;0.80;;;;;;;18.95;47.97;102455.19;20905249;28;20500;-63
2023/05/17 09:36:42;;;;;;;2.55;1.00;;;;;;;18.94;48.10;102445.38;20906252;28;20049;-64
2023/05/17 09:46:48;;;;;;;2.70;1.00;;;;;;;18.94;48.03;102458.88;20905557;28;20090;-63
2023/05/17 09:56:54;;;;;;;1.92;0.70;;;;;;;18.90;48.09;102457.34;20895255;28;20421;-63
2023/05/17 10:06:56;;;;;;;1.63;0.80;;;;;;;19.00;47.87;102476.53;20903266;28;20551;-63
2023/05/17 10:16:57;;;;;;;3.58;0.90;;;;;;;18.99;48.07;102472.94;20902921;28;20059;-63
2023/05/17 10:26:59;;;;;;;2.22;0.80;;;;;;;19.02;47.89;102481.81;20900867;28;20092;-63
2023/05/17 10:37:02;;;;;;;2.80;0.93;;;;;;;19.03;48.05;102481.72;20900222;28;20135;-64
2023/05/17 10:47:03;;;;;;;2.38;0.80;;;;;;;19.08;48.03;102470.59;20901375;28;20053;-63
2023/05/17 10:57:06;;;;;;;2.33;1.25;;;;;;;19.09;48.05;102472.34;20887347;28;20033;-64
2023/05/17 11:07:16;;;;;;;2.10;0.98;;;;;;;19.14;47.90;102478.28;20913099;28;20076;-64
2023/05/17 11:17:19;;;;;;;1.67;0.80;;;;;;;19.15;47.55;102480.00;20916871;28;20061;-64
2023/05/17 11:27:29;;;;;;;2.53;0.77;;;;;;;19.18;47.79;102474.38;20915990;28;20051;-63
2023/05/17 11:37:31;;;;;;;2.25;0.80;;;;;;;19.21;47.68;102465.19;20914130;28;20111;-64
2023/05/17 11:47:33;;;;;;;1.85;0.60;;;;;;;19.23;47.73;102474.94;20913046;28;20148;-64
2023/05/17 11:57:35;;;;;;;2.00;0.60;;;;;;;19.25;47.65;102486.47;20897703;28;20049;-64
2023/05/17 12:07:39;;;;;;;1.87;0.73;;;;;;;19.26;47.73;102472.00;20911650;28;20505;-63
2023/05/17 12:17:43;;;;;;;1.33;0.80;;;;;;;19.28;47.68;102471.91;20910266;28;20049;-64
2023/05/17 12:27:45;;;;;;;2.97;1.00;;;;;;;19.27;47.79;102478.28;20910112;28;20053;-63
2023/05/17 12:37:46;;;;;;;1.15;0.60;;;;;;;19.27;47.86;102460.25;20911090;28;20077;-64
2023/05/17 12:47:49;;;;;;;0.98;0.63;;;;;;;19.28;47.81;102459.25;20892145;28;20053;-64
2023/05/17 12:57:52;;;;;;;1.10;0.43;;;;;;;19.26;47.49;102458.50;20897250;28;20088;-64
2023/05/17 13:07:53;;;;;;;2.25;0.60;;;;;;;19.27;47.53;102460.25;20906979;28;20136;-63
2023/05/17 13:17:55;;;;;;;1.20;0.52;;;;;;;19.27;47.73;102456.69;20907086;28;20048;-64
2023/05/17 13:27:57;;;;;;;2.33;0.60;;;;;;;19.26;47.44;102461.22;20906600;28;20045;-64
2023/05/17 13:37:59;;;;;;;1.17;0.70;;;;;;;19.28;47.25;102466.53;20905324;28;20053;-64
2023/05/17 13:48:00;;;;;;;1.73;0.70;;;;;;;19.27;47.06;102462.94;20905325;28;20135;-63
2023/05/17 13:58:02;;;;;;;2.40;0.93;;;;;;;19.26;47.22;102445.00;20889637;28;20065;-63
2023/05/17 14:08:04;;;;;;;1.00;0.60;;;;;;;19.27;47.16;102454.84;20903548;28;20052;-64
2023/05/17 14:18:06;;;;;;;2.20;0.63;;;;;;;19.26;47.11;102463.91;20901754;28;20049;-64
2023/05/17 14:28:08;;;;;;;1.38;0.60;;;;;;;19.18;47.00;102466.28;20901257;28;20048;-64
2023/05/17 14:38:10;;;;;;;1.02;0.60;;;;;;;19.23;47.03;102477.63;20902021;28;20045;-63
2023/05/17 14:48:11;;;;;;;0.60;0.45;;;;;;;19.22;47.10;102475.91;20897517;28;20647;-64
2023/05/17 14:58:13;;;;;;;2.20;0.70;;;;;;;19.20;47.19;102475.16;20895873;28;20070;-64
2023/05/17 15:08:15;;;;;;;1.30;0.70;;;;;;;19.19;47.02;102480.63;20900760;28;20045;-64
2023/05/17 15:18:16;;;;;;;0.95;0.52;;;;;;;19.18;47.10;102487.00;20898486;28;20042;-63
2023/05/17 15:28:19;;;;;;;2.22;0.70;;;;;;;19.16;47.13;102483.56;20899650;28;20053;-64
2023/05/17 15:38:21;;;;;;;1.67;0.60;;;;;;;19.15;47.13;102473.72;20899315;28;20501;-63
2023/05/17 15:48:24;;;;;;;1.35;0.80;;;;;;;19.12;47.09;102478.38;20890038;28;20521;-64
2023/05/17 15:58:26;;;;;;;1.63;0.55;;;;;;;19.11;46.99;102481.19;20913725;28;20162;-63
2023/05/17 16:08:28;;;;;;;1.67;0.70;;;;;;;19.08;46.88;102498.44;20913183;28;20049;-63
2023/05/17 16:18:30;;;;;;;0.75;0.50;;;;;;;19.06;46.89;102496.84;20912075;28;20052;-63
2023/05/17 16:28:35;;;;;;;1.25;0.68;;;;;;;19.04;46.96;102496.09;20911261;28;20513;-64
2023/05/17 16:38:37;;;;;;;1.67;0.77;;;;;;;19.03;46.73;102499.75;20910797;28;20049;-63
2023/05/17 16:48:39;;;;;;;1.75;0.70;;;;;;;19.01;47.12;102497.16;20894545;28;20319;-63
2023/05/17 16:58:41;;;;;;;1.52;0.60;;;;;;;19.01;46.89;102501.69;20908208;28;20132;-63
2023/05/17 17:08:43;;;;;;;1.05;0.45;;;;;;;18.99;46.85;102509.88;20908505;28;20048;-63
2023/05/17 17:18:45;;;;;;;1.33;0.60;;;;;;;18.99;47.06;102523.38;20907776;28;20132;-63
2023/05/17 17:28:47;;;;;;;1.20;0.50;;;;;;;18.94;46.95;102518.25;20905718;28;20448;-63
2023/05/17 17:38:49;;;;;;;1.00;0.65;;;;;;;18.94;46.99;102520.09;20905983;28;20053;-63
2023/05/17 17:48:51;;;;;;;1.95;0.73;;;;;;;18.93;46.72;102529.16;20895132;28;20052;-63
2023/05/17 17:58:54;;;;;;;1.58;0.98;;;;;;;18.92;46.88;102533.66;20904482;28;20068;-63
2023/05/17 18:08:56;;;;;;;1.13;0.73;;;;;;;18.90;46.96;102535.59;20903053;28;20501;-64
2023/05/17 18:18:59;;;;;;;1.38;0.57;;;;;;;18.88;46.69;102548.34;20902615;28;20072;-64
2023/05/17 18:29:02;;;;;;;0.90;0.60;;;;;;;18.83;46.54;102545.97;20902486;28;20049;-63
2023/05/17 18:39:04;;;;;;;1.10;0.75;;;;;;;18.82;46.62;102552.34;20901420;28;20075;-63
2023/05/17 18:49:06;;;;;;;1.25;0.60;;;;;;;18.80;46.80;102551.56;20885676;28;20511;-64
2023/05/17 18:59:07;;;;;;;0.70;0.57;;;;;;;18.70;46.75;102548.63;20901224;28;20084;-63
2023/05/17 19:09:09;;;;;;;1.95;0.82;;;;;;;18.73;46.55;102562.88;20900035;28;20049;-64
2023/05/17 19:19:11;;;;;;;1.77;0.75;;;;;;;18.76;46.57;102573.44;20899935;28;20053;-63
2023/05/17 19:29:12;;;;;;;1.08;0.60;;;;;;;18.75;46.60;102574.41;20912184;28;20049;-63
2023/05/17 19:39:17;;;;;;;1.67;0.70;;;;;;;18.72;46.51;102567.38;20915071;28;20489;-63
2023/05/17 19:49:18;;;;;;;2.20;0.90;;;;;;;18.70;46.60;102578.28;20905145;28;20052;-64
2023/05/17 19:59:20;;;;;;;1.02;0.70;;;;;;;18.70;46.30;102572.91;20914435;28;20386;-64
2023/05/17 20:09:24;;;;;;;1.33;0.77;;;;;;;18.68;46.55;102569.44;20912707;28;20156;-63
2023/05/17 20:19:27;;;;;;;1.02;0.50;;;;;;;18.66;46.52;102576.75;20911930;28;20048;-63
2023/05/17 20:29:29;;;;;;;1.38;0.65;;;;;;;18.65;46.63;102576.84;20911814;28;20057;-63
2023/05/17 20:39:31;;;;;;;1.02;0.50;;;;;;;18.64;46.57;102559.81;20906583;28;20110;-63
2023/05/17 20:49:32;;;;;;;1.90;0.70;;;;;;;18.62;46.47;102569.84;20901239;28;20045;-64
2023/05/17 20:59:35;;;;;;;1.42;0.50;;;;;;;18.60;46.56;102577.16;20908654;28;20045;-63
2023/05/17 21:09:37;;;;;;;1.50;0.82;;;;;;;18.60;46.44;102582.56;20907089;28;20098;-63
2023/05/17 21:19:38;;;;;;;0.85;0.65;;;;;;;18.57;46.54;102569.28;20906012;28;20080;-63
2023/05/17 21:29:40;;;;;;;1.27;0.70;;;;;;;18.57;46.63;102574.66;20906234;28;20045;-63
2023/05/17 21:39:41;;;;;;;1.40;0.88;;;;;;;18.57;46.60;102577.38;20890939;28;20512;-64
2023/05/17 21:49:43;;;;;;;2.13;0.80;;;;;;;18.57;46.61;102582.75;20902010;28;20045;-63
2023/05/17 21:59:49;;;;;;;1.67;0.90;;;;;;;18.48;46.71;102561.75;20903082;28;20468;-63
2023/05/17 22:09:53;;;;;;;1.88;0.82;;;;;;;18.55;46.82;102569.38;20903279;28;20053;-63
2023/05/17 22:19:56;;;;;;;1.77;1.33;;;;;;;18.54;46.79;102569.44;20901384;28;20405;-63
2023/05/17 22:29:58;;;;;;;1.73;0.80;;;;;;;18.53;46.79;102568.59;20901629;28;20041;-63
2023/05/17 22:40:00;;;;;;;1.25;1.00;;;;;;;18.51;46.81;102565.13;20890270;28;20073;-63
2023/05/17 22:50:01;;;;;;;0.88;0.63;;;;;;;18.49;46.85;102576.97;20901232;28;20139;-64
2023/05/17 23:00:10;;;;;;;2.30;1.02;;;;;;;18.46;46.88;102579.88;20897877;28;20059;-63
2023/05/17 23:10:12;;;;;;;1.52;0.90;;;;;;;18.45;46.97;102583.53;20899873;28;20533;-63
2023/05/17 23:20:14;;;;;;;1.70;0.88;;;;;;;18.43;46.93;102583.66;20898350;28;20087;-63
2023/05/17 23:30:15;;;;;;;2.47;1.00;;;;;;;18.40;47.07;102578.47;20898927;28;20049;-63
2023/05/17 23:40:17;;;;;;;1.38;0.80;;;;;;;18.40;47.29;102581.16;20883971;28;20074;-63
2023/05/17 23:50:19;;;;;;;0.95;0.65;;;;;;;18.38;47.08;102575.00;20881283;28;20059;-63
